createdAt,value
2018-09-30T00:00:13.608Z,54.07
2018-09-30T00:02:41.583Z,54.41
2018-09-30T00:05:09.618Z,54.64
2018-09-30T00:07:37.503Z,54.50
2018-09-30T00:10:05.331Z,54.33
2018-09-30T00:12:33.064Z,54.33
2018-09-30T00:15:00.867Z,54.61
2018-09-30T00:17:28.506Z,54.34
2018-09-30T00:19:56.266Z,54.77
2018-09-30T00:22:23.941Z,54.82
2018-09-30T00:25:07.552Z,54.99
2018-09-30T00:27:35.190Z,54.53
2018-09-30T00:30:02.906Z,54.91
2018-09-30T00:32:30.596Z,55.26
2018-09-30T00:34:58.284Z,54.85
2018-09-30T00:37:25.938Z,54.95
2018-09-30T00:39:53.775Z,55.14
2018-09-30T00:42:22.218Z,54.80
2018-09-30T00:44:49.845Z,55.56
2018-09-30T00:47:17.465Z,55.30
2018-09-30T00:49:45.137Z,55.75
2018-09-30T00:52:12.993Z,55.70
2018-09-30T00:54:40.760Z,55.76
2018-09-30T00:57:08.503Z,55.61
2018-09-30T00:59:36.211Z,55.34
2018-09-30T01:02:03.999Z,55.50
2018-09-30T01:04:31.729Z,55.65
2018-09-30T01:06:59.442Z,55.68
2018-09-30T01:09:27.083Z,56.02
2018-09-30T01:11:54.837Z,55.95
2018-09-30T01:14:22.526Z,56.37
2018-09-30T01:16:50.890Z,56.19
2018-09-30T01:19:18.486Z,56.43
2018-09-30T01:21:46.184Z,56.25
2018-09-30T01:24:13.834Z,56.58
2018-09-30T01:26:41.501Z,56.72
2018-09-30T01:29:09.370Z,57.47
2018-09-30T01:31:37.018Z,57.11
2018-09-30T01:34:04.720Z,57.38
2018-09-30T01:36:32.339Z,57.41
2018-09-30T01:39:00.033Z,57.52
2018-09-30T01:41:27.657Z,57.81
2018-09-30T01:43:55.281Z,57.70
2018-09-30T01:46:23.189Z,56.92
2018-09-30T01:48:50.868Z,57.89
2018-09-30T01:51:18.491Z,57.31
2018-09-30T01:53:46.162Z,57.70
2018-09-30T01:56:13.800Z,58.19
2018-09-30T01:58:41.508Z,57.83
2018-09-30T02:01:09.135Z,57.99
2018-09-30T02:03:36.837Z,57.88
2018-09-30T02:06:04.488Z,57.94
2018-09-30T02:08:32.101Z,57.59
2018-09-30T02:10:59.801Z,57.94
2018-09-30T02:13:27.398Z,58.45
2018-09-30T02:15:55.056Z,58.38
2018-09-30T02:18:22.689Z,58.73
2018-09-30T02:20:50.361Z,59.07
2018-09-30T02:23:18.026Z,59.12
2018-09-30T02:25:45.643Z,59.19
2018-09-30T02:28:13.313Z,59.20
2018-09-30T02:30:41.040Z,59.51
2018-09-30T02:33:08.719Z,59.15
2018-09-30T02:35:36.372Z,59.65
2018-09-30T02:38:04.051Z,59.43
2018-09-30T02:40:31.861Z,59.26
2018-09-30T02:42:59.551Z,59.32
2018-09-30T02:45:27.167Z,59.08
2018-09-30T02:47:54.854Z,59.06
2018-09-30T02:50:22.600Z,58.96
2018-09-30T02:52:50.218Z,59.02
2018-09-30T02:55:17.923Z,59.23
2018-09-30T02:57:45.594Z,59.07
2018-09-30T03:00:13.239Z,59.99
2018-09-30T03:02:40.902Z,59.75
2018-09-30T03:05:08.553Z,59.42
2018-09-30T03:07:51.252Z,59.41
2018-09-30T03:10:19.019Z,59.97
2018-09-30T03:12:46.686Z,59.23
2018-09-30T03:15:14.309Z,59.39
2018-09-30T03:17:42.047Z,59.37
2018-09-30T03:20:09.686Z,58.73
2018-09-30T03:22:37.377Z,58.53
2018-09-30T03:25:05.017Z,59.16
2018-09-30T03:27:32.706Z,59.45
2018-09-30T03:30:00.389Z,59.29
2018-09-30T03:32:28.034Z,58.91
2018-09-30T03:34:56.851Z,58.96
2018-09-30T03:37:24.471Z,58.76
2018-09-30T03:39:52.101Z,59.35
2018-09-30T03:42:20.281Z,59.12
2018-09-30T03:44:47.906Z,59.19
2018-09-30T03:47:15.563Z,59.51
2018-09-30T03:49:43.227Z,59.26
2018-09-30T03:52:10.860Z,59.28
2018-09-30T03:54:38.486Z,59.26
2018-09-30T03:57:06.142Z,59.70
2018-09-30T03:59:33.797Z,59.59
2018-09-30T04:02:01.473Z,59.65
2018-09-30T04:04:29.084Z,59.28
2018-09-30T04:06:56.912Z,59.21
2018-09-30T04:09:24.621Z,60.05
2018-09-30T04:11:52.185Z,59.44
2018-09-30T04:14:20.321Z,59.19
2018-09-30T04:16:48.005Z,59.81
2018-09-30T04:19:15.678Z,59.50
2018-09-30T04:21:43.329Z,59.85
2018-09-30T04:24:11.032Z,59.08
2018-09-30T04:26:38.774Z,59.29
2018-09-30T04:29:06.485Z,59.80
2018-09-30T04:31:34.160Z,59.42
2018-09-30T04:34:01.849Z,59.09
2018-09-30T04:36:29.531Z,59.01
2018-09-30T04:38:57.210Z,59.29
2018-09-30T04:41:24.889Z,59.31
2018-09-30T04:43:52.475Z,59.25
2018-09-30T04:46:20.265Z,59.33
2018-09-30T04:48:47.998Z,58.89
2018-09-30T04:51:15.649Z,58.85
2018-09-30T04:53:43.411Z,59.06
2018-09-30T04:56:11.323Z,58.97
2018-09-30T04:58:38.982Z,59.60
2018-09-30T05:01:06.643Z,59.68
2018-09-30T05:03:34.299Z,59.58
2018-09-30T05:06:01.982Z,59.36
2018-09-30T05:08:29.734Z,58.95
2018-09-30T05:10:57.320Z,58.89
2018-09-30T05:13:24.938Z,58.35
2018-09-30T05:15:52.666Z,58.67
2018-09-30T05:18:20.362Z,58.93
2018-09-30T05:20:48.029Z,59.08
2018-09-30T05:23:15.674Z,59.53
2018-09-30T05:25:43.354Z,59.40
2018-09-30T05:28:10.970Z,59.48
2018-09-30T05:30:39.362Z,59.75
2018-09-30T05:33:06.977Z,58.52
2018-09-30T05:35:34.713Z,59.00
2018-09-30T05:38:02.387Z,58.61
2018-09-30T05:40:30.141Z,59.08
2018-09-30T05:42:57.764Z,59.07
2018-09-30T05:45:25.503Z,58.51
2018-09-30T05:47:53.194Z,58.75
2018-09-30T05:50:20.882Z,58.50
2018-09-30T05:52:48.592Z,58.68
2018-09-30T05:55:16.351Z,59.33
2018-09-30T05:57:44.256Z,59.27
2018-09-30T06:00:11.956Z,59.45
2018-09-30T06:02:39.631Z,59.39
2018-09-30T06:05:07.271Z,59.32
2018-09-30T06:07:35.025Z,58.98
2018-09-30T06:10:02.699Z,59.44
2018-09-30T06:12:30.329Z,59.64
2018-09-30T06:14:57.999Z,58.50
2018-09-30T06:17:25.588Z,58.62
2018-09-30T06:19:53.249Z,58.55
2018-09-30T06:22:20.863Z,59.32
2018-09-30T06:24:48.732Z,58.27
2018-09-30T06:27:16.348Z,59.30
2018-09-30T06:29:43.951Z,59.27
2018-09-30T06:32:11.774Z,58.72
2018-09-30T06:34:39.443Z,59.01
2018-09-30T06:37:07.177Z,59.08
2018-09-30T06:39:34.885Z,58.92
2018-09-30T06:42:02.745Z,58.98
2018-09-30T06:44:30.422Z,58.99
2018-09-30T06:46:58.125Z,59.09
2018-09-30T06:49:25.811Z,59.56
2018-09-30T06:51:53.502Z,58.75
2018-09-30T06:54:21.099Z,59.84
2018-09-30T06:56:48.742Z,59.01
2018-09-30T06:59:16.430Z,59.35
2018-09-30T07:01:44.076Z,58.85
2018-09-30T07:04:11.716Z,59.31
2018-09-30T07:06:39.354Z,59.10
2018-09-30T07:09:07.128Z,59.26
2018-09-30T07:11:34.732Z,59.54
2018-09-30T07:14:02.350Z,57.06
2018-09-30T07:16:30.027Z,57.80
2018-09-30T07:18:57.704Z,57.49
2018-09-30T07:21:25.466Z,57.22
2018-09-30T07:23:53.174Z,57.76
2018-09-30T07:26:20.828Z,58.16
2018-09-30T07:28:48.439Z,57.33
2018-09-30T07:31:16.074Z,59.07
2018-09-30T07:33:43.807Z,58.06
2018-09-30T07:36:11.428Z,58.56
2018-09-30T07:38:39.265Z,57.74
2018-09-30T07:41:07.456Z,56.72
2018-09-30T07:43:35.232Z,57.44
2018-09-30T07:46:03.780Z,56.05
2018-09-30T07:48:31.559Z,57.35
2018-09-30T07:50:59.589Z,57.46
2018-09-30T07:53:27.746Z,58.72
2018-09-30T07:55:55.656Z,58.64
2018-09-30T07:58:24.468Z,57.03
2018-09-30T08:00:52.326Z,56.72
2018-09-30T08:03:21.022Z,55.92
2018-09-30T08:05:49.001Z,55.53
2018-09-30T08:08:17.047Z,56.55
2018-09-30T08:10:45.363Z,57.19
2018-09-30T08:13:13.492Z,55.63
2018-09-30T08:15:41.596Z,55.36
2018-09-30T08:18:09.619Z,54.27
2018-09-30T08:20:37.548Z,54.20
2018-09-30T08:23:05.662Z,54.95
2018-09-30T08:25:33.694Z,55.13
2018-09-30T08:28:01.695Z,54.44
2018-09-30T08:30:30.438Z,53.59
2018-09-30T08:32:58.090Z,54.88
2018-09-30T08:35:25.814Z,54.04
2018-09-30T08:37:53.438Z,54.82
2018-09-30T08:40:21.170Z,54.36
2018-09-30T08:42:48.845Z,53.90
2018-09-30T08:45:16.496Z,54.59
2018-09-30T08:47:44.238Z,53.27
2018-09-30T08:50:12.087Z,53.29
2018-09-30T08:52:39.594Z,53.28
2018-09-30T08:55:07.234Z,52.08
2018-09-30T08:57:34.756Z,51.11
2018-09-30T09:00:02.304Z,51.65
2018-09-30T09:02:29.858Z,53.13
2018-09-30T09:04:57.440Z,52.18
2018-09-30T09:07:24.956Z,51.85
2018-09-30T09:09:52.570Z,52.50
2018-09-30T09:12:20.133Z,52.82
2018-09-30T09:14:47.661Z,52.04
2018-09-30T09:17:15.176Z,51.93
2018-09-30T09:19:42.768Z,51.95
2018-09-30T09:22:10.371Z,52.79
2018-09-30T09:24:37.896Z,52.10
2018-09-30T09:27:05.528Z,52.33
2018-09-30T09:29:33.055Z,51.60
2018-09-30T09:32:00.621Z,51.46
2018-09-30T09:34:28.130Z,52.96
2018-09-30T09:36:55.724Z,51.62
2018-09-30T09:39:23.249Z,52.08
2018-09-30T09:41:50.786Z,51.37
2018-09-30T09:44:18.356Z,51.56
2018-09-30T09:46:47.085Z,51.69
2018-09-30T09:49:14.615Z,51.96
2018-09-30T09:51:42.178Z,52.29
2018-09-30T09:54:09.736Z,50.90
2018-09-30T09:56:37.297Z,50.90
2018-09-30T09:59:04.944Z,50.44
2018-09-30T10:01:32.471Z,51.49
2018-09-30T10:04:00.027Z,51.79
2018-09-30T10:06:27.545Z,51.15
2018-09-30T10:08:55.139Z,52.01
2018-09-30T10:11:22.722Z,52.26
2018-09-30T10:13:50.229Z,52.24
2018-09-30T10:16:17.780Z,51.05
2018-09-30T10:18:45.460Z,51.42
2018-09-30T10:21:13.087Z,52.21
2018-09-30T10:23:40.805Z,50.93
2018-09-30T10:26:08.436Z,51.66
2018-09-30T10:28:36.344Z,50.25
2018-09-30T10:31:03.937Z,50.76
2018-09-30T10:33:31.845Z,50.76
2018-09-30T10:35:59.515Z,50.43
2018-09-30T10:38:27.420Z,51.31
2018-09-30T10:40:55.107Z,51.24
2018-09-30T10:43:22.896Z,51.02
2018-09-30T10:45:50.491Z,50.44
2018-09-30T10:48:18.063Z,49.97
2018-09-30T10:50:45.887Z,48.91
2018-09-30T10:53:13.581Z,50.15
2018-09-30T10:55:41.523Z,49.80
2018-09-30T10:58:09.185Z,51.47
2018-09-30T11:00:36.939Z,48.19
2018-09-30T11:03:04.754Z,49.14
2018-09-30T11:05:32.364Z,48.72
2018-09-30T11:07:59.987Z,48.61
2018-09-30T11:10:27.649Z,48.89
2018-09-30T11:12:55.224Z,49.02
2018-09-30T11:15:22.924Z,49.97
2018-09-30T11:17:50.630Z,47.26
2018-09-30T11:20:18.379Z,49.45
2018-09-30T11:22:46.072Z,48.92
2018-09-30T11:25:13.999Z,47.33
2018-09-30T11:27:41.702Z,46.84
2018-09-30T11:30:09.677Z,48.17
2018-09-30T11:32:37.425Z,47.46
2018-09-30T11:35:05.239Z,48.27
2018-09-30T11:37:32.997Z,46.74
2018-09-30T11:40:00.748Z,46.87
2018-09-30T11:42:28.468Z,48.88
2018-09-30T11:44:56.262Z,47.56
2018-09-30T11:47:23.989Z,46.48
2018-09-30T11:49:51.740Z,47.24
2018-09-30T11:52:20.194Z,45.58
2018-09-30T11:54:47.898Z,47.72
2018-09-30T11:57:15.703Z,47.45
2018-09-30T11:59:43.387Z,46.51
2018-09-30T12:02:11.216Z,45.62
2018-09-30T12:04:39.008Z,45.13
2018-09-30T12:07:06.827Z,44.86
2018-09-30T12:09:34.571Z,45.12
2018-09-30T12:12:02.226Z,45.17
2018-09-30T12:14:29.940Z,45.80
2018-09-30T12:16:57.593Z,45.12
2018-09-30T12:19:25.394Z,45.24
2018-09-30T12:21:53.086Z,46.03
2018-09-30T12:24:20.835Z,46.57
2018-09-30T12:26:49.929Z,46.28
2018-09-30T12:29:18.809Z,46.72
2018-09-30T12:31:46.729Z,47.54
2018-09-30T12:34:14.260Z,47.16
2018-09-30T12:36:41.817Z,47.26
2018-09-30T12:39:09.389Z,43.33
2018-09-30T12:41:37.132Z,43.18
2018-09-30T12:44:04.866Z,41.73
2018-09-30T12:46:32.433Z,41.88
2018-09-30T12:48:59.992Z,43.08
2018-09-30T12:51:27.576Z,42.63
2018-09-30T12:53:55.165Z,42.73
2018-09-30T12:56:22.666Z,42.33
2018-09-30T12:58:50.204Z,44.81
2018-09-30T13:01:17.777Z,42.10
2018-09-30T13:03:45.298Z,44.60
2018-09-30T13:06:12.856Z,42.78
2018-09-30T13:08:40.429Z,42.45
2018-09-30T13:11:07.936Z,42.12
2018-09-30T13:13:35.493Z,42.57
2018-09-30T13:16:03.093Z,42.25
2018-09-30T13:18:30.610Z,41.74
2018-09-30T13:20:58.251Z,43.91
2018-09-30T13:23:25.789Z,43.28
2018-09-30T13:25:53.399Z,43.59
2018-09-30T13:28:20.936Z,41.48
2018-09-30T13:30:48.456Z,42.49
2018-09-30T13:33:16.029Z,42.61
2018-09-30T13:35:43.589Z,42.64
2018-09-30T13:38:11.164Z,41.90
2018-09-30T13:40:38.792Z,42.11
2018-09-30T13:43:06.295Z,42.36
2018-09-30T13:45:33.819Z,44.25
2018-09-30T13:48:01.600Z,44.04
2018-09-30T13:50:29.139Z,42.29
2018-09-30T13:52:56.699Z,40.40
2018-09-30T13:55:24.279Z,40.52
2018-09-30T13:57:51.849Z,41.02
2018-09-30T14:00:20.011Z,41.11
2018-09-30T14:02:47.572Z,42.24
2018-09-30T14:05:15.193Z,40.36
2018-09-30T14:07:42.758Z,39.44
2018-09-30T14:10:10.262Z,38.61
2018-09-30T14:12:37.785Z,38.61
2018-09-30T14:15:05.378Z,39.57
2018-09-30T14:17:32.981Z,40.63
2018-09-30T14:20:00.577Z,41.29
2018-09-30T14:22:28.096Z,40.25
2018-09-30T14:24:55.684Z,40.36
2018-09-30T14:27:23.445Z,40.77
2018-09-30T14:29:50.888Z,40.07
2018-09-30T14:32:18.581Z,42.32
2018-09-30T14:34:46.097Z,40.43
2018-09-30T14:37:13.666Z,41.64
2018-09-30T14:39:41.186Z,40.01
2018-09-30T14:42:08.708Z,39.77
2018-09-30T14:44:36.298Z,40.86
2018-09-30T14:47:03.865Z,41.45
2018-09-30T14:49:31.438Z,41.04
2018-09-30T14:51:59.015Z,40.71
2018-09-30T14:54:26.658Z,41.95
2018-09-30T14:56:54.379Z,41.44
2018-09-30T14:59:21.909Z,40.60
2018-09-30T15:01:49.418Z,41.08
2018-09-30T15:04:17.064Z,40.82
2018-09-30T15:06:44.601Z,40.56
2018-09-30T15:09:12.191Z,40.00
2018-09-30T15:11:39.700Z,41.60
2018-09-30T15:14:07.274Z,39.91
2018-09-30T15:16:34.797Z,41.04
2018-09-30T15:19:02.399Z,41.29
2018-09-30T15:21:29.965Z,41.45
2018-09-30T15:23:57.514Z,40.82
2018-09-30T15:26:25.038Z,40.98
2018-09-30T15:28:52.551Z,41.51
2018-09-30T15:31:20.118Z,41.31
2018-09-30T15:33:47.680Z,42.19
2018-09-30T15:36:15.213Z,42.77
2018-09-30T15:38:42.773Z,42.49
2018-09-30T15:41:10.300Z,42.46
2018-09-30T15:43:37.835Z,42.48
2018-09-30T15:46:05.407Z,42.85
2018-09-30T15:48:33.014Z,42.64
2018-09-30T15:51:00.678Z,42.89
2018-09-30T15:53:28.201Z,43.61
2018-09-30T15:55:55.773Z,43.26
2018-09-30T15:58:23.336Z,42.98
2018-09-30T16:00:51.117Z,42.75
2018-09-30T16:03:18.789Z,43.43
2018-09-30T16:05:46.338Z,44.19
2018-09-30T16:08:13.901Z,44.15
2018-09-30T16:10:41.498Z,43.51
2018-09-30T16:13:09.081Z,43.77
2018-09-30T16:15:36.602Z,44.34
2018-09-30T16:18:04.179Z,44.80
2018-09-30T16:20:31.724Z,44.98
2018-09-30T16:22:59.577Z,45.19
2018-09-30T16:25:27.177Z,45.49
2018-09-30T16:27:54.721Z,45.71
2018-09-30T16:30:22.304Z,46.85
2018-09-30T16:32:49.824Z,46.12
2018-09-30T16:35:17.477Z,45.62
2018-09-30T16:37:45.009Z,46.03
2018-09-30T16:40:12.555Z,45.51
2018-09-30T16:42:40.082Z,45.71
2018-09-30T16:45:07.659Z,45.13
2018-09-30T16:47:35.192Z,47.05
2018-09-30T16:50:02.796Z,47.19
2018-09-30T16:52:30.386Z,47.10
2018-09-30T16:54:57.950Z,47.38
2018-09-30T16:57:25.507Z,48.18
2018-09-30T16:59:53.079Z,48.33
2018-09-30T17:02:21.379Z,47.47
2018-09-30T17:04:48.958Z,47.64
2018-09-30T17:07:16.534Z,47.66
2018-09-30T17:09:44.140Z,47.18
2018-09-30T17:12:11.642Z,47.41
2018-09-30T17:14:39.226Z,47.05
2018-09-30T17:17:06.761Z,48.45
2018-09-30T17:19:34.360Z,46.67
2018-09-30T17:22:01.877Z,48.08
2018-09-30T17:24:29.438Z,47.45
2018-09-30T17:26:56.979Z,47.75
2018-09-30T17:29:24.544Z,47.56
2018-09-30T17:31:52.058Z,47.44
2018-09-30T17:34:20.383Z,47.81
2018-09-30T17:36:47.908Z,48.15
2018-09-30T17:39:15.580Z,48.75
2018-09-30T17:41:43.144Z,48.49
2018-09-30T17:44:10.865Z,49.54
2018-09-30T17:46:38.611Z,49.14
2018-09-30T17:49:06.571Z,49.53
2018-09-30T17:51:34.171Z,49.83
2018-09-30T17:54:02.139Z,50.13
2018-09-30T17:56:29.894Z,49.99
2018-09-30T17:58:57.507Z,50.65
2018-09-30T18:01:25.136Z,49.86
2018-09-30T18:03:52.835Z,50.00
2018-09-30T18:06:20.556Z,51.30
2018-09-30T18:08:49.548Z,51.90
2018-09-30T18:11:17.285Z,51.43
2018-09-30T18:13:45.144Z,52.65
2018-09-30T18:16:12.893Z,53.35
2018-09-30T18:18:40.527Z,52.95
2018-09-30T18:21:08.244Z,53.63
2018-09-30T18:23:35.974Z,53.54
2018-09-30T18:26:03.510Z,53.68
2018-09-30T18:28:31.197Z,53.41
2018-09-30T18:30:58.769Z,54.50
2018-09-30T18:33:26.419Z,54.35
2018-09-30T18:35:54.035Z,54.09
2018-09-30T18:38:21.753Z,54.34
2018-09-30T18:40:49.388Z,54.29
2018-09-30T18:43:17.063Z,54.29
2018-09-30T18:45:44.849Z,54.98
2018-09-30T18:48:12.522Z,55.62
2018-09-30T18:50:40.437Z,54.33
2018-09-30T18:53:08.069Z,54.28
2018-09-30T18:55:35.766Z,54.29
2018-09-30T18:58:03.429Z,54.10
2018-09-30T19:00:31.143Z,54.27
2018-09-30T19:02:58.882Z,54.70
2018-09-30T19:05:26.721Z,54.58
2018-09-30T19:07:54.502Z,55.05
2018-09-30T19:10:22.192Z,54.61
2018-09-30T19:12:49.909Z,55.18
2018-09-30T19:15:17.570Z,55.31
2018-09-30T19:17:45.636Z,56.08
2018-09-30T19:20:15.984Z,55.92
2018-09-30T19:22:43.798Z,56.41
2018-09-30T19:25:12.018Z,55.98
2018-09-30T19:27:40.355Z,56.10
2018-09-30T19:32:51.785Z,55.89
2018-09-30T19:35:20.608Z,55.71
2018-09-30T19:37:48.589Z,55.88
2018-09-30T19:40:17.375Z,56.10
2018-09-30T19:42:45.168Z,55.54
2018-09-30T19:45:12.757Z,55.37
2018-09-30T19:47:40.434Z,55.42
2018-09-30T19:50:08.223Z,55.61
2018-09-30T19:52:35.871Z,55.63
2018-09-30T19:55:03.543Z,54.79
2018-09-30T19:57:31.225Z,54.81
2018-09-30T19:59:58.816Z,54.10
2018-09-30T20:02:26.474Z,54.29
2018-09-30T20:04:54.101Z,54.01
2018-09-30T20:07:21.748Z,53.86
2018-09-30T20:09:49.447Z,54.34
2018-09-30T20:12:17.207Z,54.25
2018-09-30T20:14:45.072Z,56.20
2018-09-30T20:17:12.854Z,54.50
2018-09-30T20:19:40.568Z,55.39
2018-09-30T20:22:08.345Z,54.92
2018-09-30T20:24:36.073Z,55.56
2018-09-30T20:27:03.805Z,55.68
2018-09-30T20:29:31.627Z,56.40
2018-09-30T20:31:59.328Z,56.52
2018-09-30T20:34:27.211Z,56.69
2018-09-30T20:36:54.976Z,57.66
2018-09-30T20:39:22.595Z,57.24
2018-09-30T20:41:50.249Z,58.17
2018-09-30T20:44:17.936Z,58.59
2018-09-30T20:46:45.624Z,58.54
2018-09-30T20:49:13.326Z,59.31
2018-09-30T20:51:40.839Z,58.99
2018-09-30T20:54:08.444Z,59.23
2018-09-30T20:56:36.160Z,59.11
2018-09-30T20:59:03.962Z,59.52
2018-09-30T21:01:31.583Z,59.92
2018-09-30T21:03:59.193Z,60.55
2018-09-30T21:06:26.808Z,60.65
2018-09-30T21:08:54.473Z,61.21
2018-09-30T21:11:22.187Z,61.18
2018-09-30T21:13:49.812Z,61.33
2018-09-30T21:16:17.573Z,61.46
2018-09-30T21:18:45.325Z,62.27
2018-09-30T21:21:12.988Z,62.05
2018-09-30T21:23:40.740Z,62.23
2018-09-30T21:26:08.460Z,62.53
2018-09-30T21:28:36.068Z,62.55
2018-09-30T21:31:03.954Z,61.96
2018-09-30T21:33:31.576Z,62.28
2018-09-30T21:35:59.245Z,63.81
2018-09-30T21:38:26.907Z,63.09
2018-09-30T21:40:54.633Z,63.92
2018-09-30T21:43:22.364Z,63.08
2018-09-30T21:45:50.041Z,63.61
2018-09-30T21:48:17.625Z,63.01
2018-09-30T21:50:45.166Z,64.69
2018-09-30T21:53:12.806Z,65.02
2018-09-30T21:55:40.421Z,65.22
2018-09-30T21:58:07.944Z,65.00
2018-09-30T22:00:35.544Z,64.14
2018-09-30T22:03:03.130Z,64.08
2018-09-30T22:05:30.674Z,63.97
2018-09-30T22:07:58.237Z,64.46
2018-09-30T22:10:25.754Z,65.59
2018-09-30T22:12:53.335Z,66.01
2018-09-30T22:15:20.892Z,67.06
2018-09-30T22:17:48.433Z,67.47
2018-09-30T22:20:16.037Z,67.19
2018-09-30T22:22:43.552Z,67.86
2018-09-30T22:25:11.109Z,68.25
2018-09-30T22:27:38.629Z,68.64
2018-09-30T22:30:06.219Z,68.20
2018-09-30T22:32:33.985Z,68.57
2018-09-30T22:35:01.512Z,69.05
2018-09-30T22:37:29.081Z,68.86
2018-09-30T22:39:56.615Z,69.09
2018-09-30T22:42:24.230Z,68.69
2018-09-30T22:44:51.764Z,69.38
2018-09-30T22:47:19.356Z,68.85
2018-09-30T22:49:46.894Z,68.62
2018-09-30T22:52:14.419Z,68.59
2018-09-30T22:54:42.035Z,69.10
2018-09-30T22:57:09.562Z,68.55
2018-09-30T22:59:37.133Z,68.73
2018-09-30T23:02:04.685Z,68.98
2018-09-30T23:04:32.295Z,68.51
2018-09-30T23:06:59.860Z,69.87
2018-09-30T23:09:27.422Z,69.32
2018-09-30T23:11:54.948Z,68.92
2018-09-30T23:14:22.489Z,69.24
2018-09-30T23:16:50.072Z,69.16
2018-09-30T23:19:17.628Z,68.25
2018-09-30T23:21:45.179Z,69.05
2018-09-30T23:24:12.696Z,69.33
2018-09-30T23:26:40.287Z,69.81
2018-09-30T23:29:07.957Z,70.03
2018-09-30T23:31:35.515Z,69.65
2018-09-30T23:34:03.074Z,70.83
2018-09-30T23:36:30.596Z,71.10
2018-09-30T23:38:58.169Z,71.85
2018-09-30T23:41:25.782Z,72.29
2018-09-30T23:43:53.286Z,71.99
2018-09-30T23:46:20.827Z,71.77
2018-09-30T23:48:48.379Z,72.44
2018-09-30T23:51:15.958Z,72.18
2018-09-30T23:53:43.476Z,71.98
2018-09-30T23:56:11.159Z,72.13
2018-09-30T23:58:38.698Z,71.56
